Time;durP1;ratioP1;P1;durP2;ratioP2;P2;SDS_P1;SDS_P2;PMS_P1;PMS_P2;Temp;Humidity;BMP_temperature;BMP_pressure;BME280_temperature;BME280_humidity;BME280_pressure;Samples;Min_cycle;Max_cycle;Signal;HPM_P1;HPM_P2
2021/12/13 00:00:04;;;;;;;27.70;8.43;;;13.00;99.90;;;;;;6127595;23;20025;-88
2021/12/13 00:03:56;;;;;;;35.72;8.70;;;10.90;99.90;;;;;;6153340;23;20025;-89
2021/12/13 00:07:07;;;;;;;;;;;;;;;;;;;;;
2021/12/13 00:10:00;;;;;;;26.20;7.15;;;11.10;99.90;;;;;;6205128;23;20095;-89
2021/12/13 00:12:59;;;;;;;14.77;5.50;;;11.60;99.90;;;;;;6156828;23;20027;-89
2021/12/13 00:16:01;;;;;;;;;;;;;;;;;;;;;
2021/12/13 00:26:03;;;;;;;;;;;;;;;;;;;;;
2021/12/13 00:30:10;;;;;;;;;;;;;;;;;;;;;
2021/12/13 00:33:24;;;;;;;17.17;5.88;;;13.40;99.90;;;;;;6165297;22;20109;-89
2021/12/13 00:36:19;;;;;;;23.48;5.78;;;12.80;99.90;;;;;;6155865;23;20013;-89
2021/12/13 00:39:47;;;;;;;;;;;;;;;;;;;;;
2021/12/13 00:43:25;;;;;;;;;;;;;;;;;;;;;
2021/12/13 00:46:24;;;;;;;34.28;5.45;;;12.10;99.90;;;;;;6155407;23;20103;-89
2021/12/13 00:49:40;;;;;;;27.73;5.68;;;13.30;99.90;;;;;;6155722;23;20014;-89
2021/12/13 00:52:21;;;;;;;28.98;6.25;;;11.20;99.90;;;;;;6156060;23;20021;-89
2021/12/13 00:55:02;;;;;;;;;;;;;;;;;;;;;
2021/12/13 00:58:07;;;;;;;21.67;5.63;;;14.70;99.90;;;;;;6206042;23;20013;-89
2021/12/13 01:00:51;;;;;;;29.30;5.45;;;11.10;99.90;;;;;;6146348;23;20017;-89
2021/12/13 01:04:02;;;;;;;;;;;;;;;;;;;;;
2021/12/13 01:07:30;;;;;;;;;;;;;;;;;;;;;
2021/12/13 01:14:29;;;;;;;25.90;5.00;;;10.30;99.90;;;;;;6037289;23;20477;-89
2021/12/13 01:17:43;;;;;;;25.83;4.82;;;13.70;99.90;;;;;;6155882;23;20025;-89
2021/12/13 01:24:51;;;;;;;;;;;;;;;;;;;;;
2021/12/13 01:27:30;;;;;;;;;;;;;;;;;;;;;
2021/12/13 01:30:38;;;;;;;17.58;3.60;;;9.90;99.90;;;;;;6206912;23;20032;-89
2021/12/13 01:34:27;;;;;;;;;;;;;;;;;;;;;
2021/12/13 01:36:59;;;;;;;;;;;;;;;;;;;;;
2021/12/13 01:40:03;;;;;;;27.60;4.60;;;9.90;99.90;;;;;;6205997;23;20021;-89
2021/12/13 01:43:24;;;;;;;;;;;;;;;;;;;;;
2021/12/13 01:50:51;;;;;;;;;;;;;;;;;;;;;
2021/12/13 02:02:05;;;;;;;;;;;;;;;;;;;;;
2021/12/13 02:12:54;;;;;;;15.68;3.53;;;12.00;99.90;;;;;;6068633;23;20270;-89
2021/12/13 02:36:53;;;;;;;9.93;2.00;;;11.50;99.90;;;;;;5981003;23;20495;-89
2021/12/13 02:39:58;;;;;;;;;;;;;;;;;;;;;
2021/12/13 02:50:41;;;;;;;;;;;;;;;;;;;;;
2021/12/13 03:22:03;;;;;;;16.67;3.10;;;12.70;99.90;;;;;;6038041;23;20119;-90
2021/12/13 03:30:21;;;;;;;;;;;;;;;;;;;;;
2021/12/13 03:55:30;;;;;;;;;;;;;;;;;;;;;
2021/12/13 04:16:46;;;;;;;11.85;3.65;;;10.50;99.90;;;;;;5925544;24;20114;-88
2021/12/13 04:19:42;;;;;;;9.85;3.40;;;11.20;99.90;;;;;;5877722;24;20036;-88
2021/12/13 04:22:28;;;;;;;8.15;2.95;;;11.30;99.90;;;;;;5921740;23;20122;-88
2021/12/13 04:25:16;;;;;;;7.63;2.90;;;10.30;99.90;;;;;;6086629;23;20340;-89
2021/12/13 04:28:37;;;;;;;;;;;;;;;;;;;;;
2021/12/13 04:31:48;;;;;;;9.07;3.75;;;11.10;99.90;;;;;;6183334;23;20021;-89
2021/12/13 04:42:00;;;;;;;;;;;;;;;;;;;;;
2021/12/13 04:57:24;;;;;;;;;;;;;;;;;;;;;
2021/12/13 05:38:18;;;;;;;8.10;5.50;;;10.80;99.90;;;;;;6019053;23;20030;-89
2021/12/13 05:41:21;;;;;;;12.00;5.95;;;11.50;99.90;;;;;;6000304;23;20337;-88
2021/12/13 05:48:02;;;;;;;;;;;;;;;;;;;;;
2021/12/13 05:58:10;;;;;;;12.30;6.55;;;11.10;99.90;;;;;;6021604;23;20028;-88
2021/12/13 06:01:11;;;;;;;;;;;;;;;;;;;;;
2021/12/13 06:04:19;;;;;;;9.00;6.22;;;10.30;99.90;;;;;;6237586;23;20075;-89
2021/12/13 06:11:12;;;;;;;9.02;6.00;;;12.40;99.90;;;;;;6209503;23;20042;-89
2021/12/13 06:14:09;;;;;;;12.90;6.38;;;12.30;99.90;;;;;;6059019;23;20022;-89
2021/12/13 06:18:16;;;;;;;11.20;6.60;;;10.70;99.90;;;;;;6043425;23;20496;-89
2021/12/13 06:20:38;;;;;;;12.30;6.55;;;12.00;99.90;;;;;;6102824;22;20090;-89
2021/12/13 06:24:12;;;;;;;;;;;;;;;;;;;;;
2021/12/13 06:30:44;;;;;;;;;;;;;;;;;;;;;
2021/12/13 06:33:12;;;;;;;10.05;7.35;;;12.20;99.90;;;;;;6281126;22;20025;-87
2021/12/13 06:35:53;;;;;;;11.88;6.55;;;11.90;99.90;;;;;;6234948;22;20025;-87
2021/12/13 06:38:22;;;;;;;11.50;7.03;;;11.80;99.90;;;;;;6281854;22;20026;-87
2021/12/13 06:41:15;;;;;;;11.52;6.75;;;11.90;99.90;;;;;;6256176;22;20026;-88
2021/12/13 06:44:18;;;;;;;11.73;7.90;;;10.30;99.90;;;;;;6256013;22;20050;-87
2021/12/13 06:47:07;;;;;;;;;;;;;;;;;;;;;
2021/12/13 06:49:54;;;;;;;16.35;8.43;;;10.30;99.90;;;;;;6281775;22;20019;-88
2021/12/13 06:53:08;;;;;;;13.35;7.20;;;11.20;99.90;;;;;;6254305;22;20023;-89
2021/12/13 06:55:43;;;;;;;12.15;8.00;;;11.60;99.90;;;;;;6271616;22;20396;-88
2021/12/13 06:58:27;;;;;;;13.20;6.78;;;11.90;99.90;;;;;;6255983;22;20064;-88
2021/12/13 07:00:57;;;;;;;11.05;7.40;;;10.40;99.90;;;;;;6256881;22;20353;-88
2021/12/13 07:03:32;;;;;;;10.35;6.65;;;11.70;99.90;;;;;;6255921;22;20371;-88
2021/12/13 07:06:00;;;;;;;13.65;8.80;;;10.50;99.90;;;;;;6255975;22;20493;-88
2021/12/13 07:08:50;;;;;;;;;;;;;;;;;;;;;
2021/12/13 07:11:22;;;;;;;13.65;8.00;;;9.50;99.90;;;;;;6307244;22;20019;-88
2021/12/13 07:14:22;;;;;;;21.55;9.02;;;11.50;99.90;;;;;;6267858;22;20353;-89
2021/12/13 07:20:54;;;;;;;12.32;7.03;;;12.70;99.90;;;;;;6274699;22;20041;-87
2021/12/13 07:23:20;;;;;;;11.27;7.43;;;12.30;99.90;;;;;;6223328;22;20019;-88
2021/12/13 07:25:49;;;;;;;16.70;8.23;;;11.10;99.90;;;;;;6198494;23;20462;-86
2021/12/13 07:28:34;;;;;;;16.88;8.13;;;10.10;99.90;;;;;;6155048;23;20116;-81
2021/12/13 07:31:05;;;;;;;17.15;10.05;;;11.10;99.90;;;;;;6180742;23;20099;-88
2021/12/13 07:33:40;;;;;;;18.90;9.55;;;10.90;99.90;;;;;;6180525;22;20021;-85
2021/12/13 07:36:16;;;;;;;16.58;9.43;;;11.90;99.90;;;;;;6180093;23;20009;-86
2021/12/13 07:39:01;;;;;;;19.63;10.50;;;11.50;99.90;;;;;;6155760;23;20136;-91
2021/12/13 07:41:40;;;;;;;15.10;9.48;;;10.20;99.90;;;;;;6155870;23;20017;-88
2021/12/13 07:44:09;;;;;;;17.90;10.73;;;11.50;99.90;;;;;;6155871;23;20092;-88
2021/12/13 07:46:41;;;;;;;15.45;9.73;;;10.90;99.90;;;;;;6180305;23;20021;-87
2021/12/13 07:49:10;;;;;;;15.55;9.38;;;11.40;99.90;;;;;;6156239;23;20049;-87
2021/12/13 07:51:50;;;;;;;16.48;11.13;;;13.30;99.90;;;;;;6180515;23;20339;-87
2021/12/13 07:54:18;;;;;;;16.13;11.13;;;11.60;99.90;;;;;;6179222;23;20017;-87
2021/12/13 07:56:59;;;;;;;15.90;10.32;;;11.00;99.90;;;;;;6179879;23;20056;-86
2021/12/13 07:59:37;;;;;;;14.80;10.48;;;10.90;99.90;;;;;;6180512;23;20017;-91
2021/12/13 08:02:25;;;;;;;17.00;10.68;;;9.10;99.90;;;;;;6156037;23;20017;-86
2021/12/13 08:04:58;;;;;;;14.60;11.00;;;11.70;99.90;;;;;;6180982;22;20028;-89
2021/12/13 08:07:31;;;;;;;15.73;9.52;;;11.50;99.90;;;;;;6155376;23;20017;-86
2021/12/13 08:10:01;;;;;;;14.60;9.60;;;10.70;99.90;;;;;;6155192;23;20016;-88
2021/12/13 08:12:35;;;;;;;15.80;10.05;;;11.20;99.90;;;;;;6181215;23;20017;-87
2021/12/13 08:15:15;;;;;;;20.50;9.93;;;10.80;99.90;;;;;;6168723;23;20401;-90
2021/12/13 08:17:54;;;;;;;15.23;10.77;;;10.70;99.90;;;;;;6154707;23;20104;-88
2021/12/13 08:20:43;;;;;;;15.88;8.93;;;10.90;99.90;;;;;;6155312;23;20016;-87
2021/12/13 08:23:21;;;;;;;16.90;10.43;;;10.50;99.90;;;;;;6155373;23;20017;-91
2021/12/13 08:25:51;;;;;;;17.15;10.45;;;11.50;99.90;;;;;;6179831;23;20027;-87
2021/12/13 08:28:32;;;;;;;20.20;11.57;;;10.10;99.90;;;;;;6155223;23;20021;-90
2021/12/13 08:31:00;;;;;;;16.73;10.48;;;12.60;99.90;;;;;;6155665;23;20013;-85
2021/12/13 08:33:40;;;;;;;17.95;10.05;;;10.90;99.90;;;;;;6154678;23;20013;-88
2021/12/13 08:36:13;;;;;;;16.95;10.75;;;11.80;99.90;;;;;;6181722;23;20059;-90
2021/12/13 08:38:46;;;;;;;16.60;10.10;;;11.40;99.90;;;;;;6155811;23;20017;-93
2021/12/13 08:41:22;;;;;;;14.35;8.73;;;11.00;99.90;;;;;;6155995;23;20024;-89
2021/12/13 08:43:54;;;;;;;18.17;12.52;;;12.70;99.90;;;;;;6155059;23;20020;-88
2021/12/13 08:46:35;;;;;;;17.55;11.55;;;11.40;99.90;;;;;;6180009;23;20028;-92
2021/12/13 08:49:13;;;;;;;18.10;9.68;;;10.50;99.90;;;;;;6155503;23;20100;-90
2021/12/13 08:51:51;;;;;;;13.85;7.95;;;11.20;99.90;;;;;;6180130;23;20335;-87
2021/12/13 08:54:18;;;;;;;16.70;11.65;;;10.80;99.90;;;;;;6155008;23;20021;-90
2021/12/13 08:56:48;;;;;;;17.17;10.55;;;10.80;99.90;;;;;;6155026;23;20018;-89
2021/12/13 08:59:25;;;;;;;13.43;8.95;;;10.60;99.90;;;;;;6179455;23;20017;-87
2021/12/13 09:01:56;;;;;;;17.38;10.80;;;11.50;99.90;;;;;;6180204;23;20066;-90
2021/12/13 09:04:26;;;;;;;17.10;10.43;;;11.40;99.90;;;;;;6155316;23;20024;-86
2021/12/13 09:06:57;;;;;;;15.00;9.57;;;11.50;99.90;;;;;;6181836;23;20013;-89
2021/12/13 09:09:23;;;;;;;14.10;8.63;;;10.70;99.90;;;;;;6179546;23;20017;-88
2021/12/13 09:11:57;;;;;;;12.25;8.07;;;12.00;99.90;;;;;;6179910;23;20013;-90
2021/12/13 09:14:39;;;;;;;11.20;8.48;;;11.70;99.90;;;;;;6153785;23;20079;-89
2021/12/13 09:17:22;;;;;;;14.32;8.15;;;11.90;99.90;;;;;;6179056;23;20024;-88
2021/12/13 09:19:47;;;;;;;12.48;7.90;;;11.00;99.90;;;;;;6180063;23;20019;-90
2021/12/13 09:22:31;;;;;;;11.60;8.75;;;12.20;99.90;;;;;;6179682;23;20096;-87
2021/12/13 09:25:07;;;;;;;14.00;8.32;;;11.10;99.90;;;;;;6154862;23;20014;-88
2021/12/13 09:27:38;;;;;;;12.00;7.47;;;10.60;99.90;;;;;;6154961;23;20017;-89
2021/12/13 09:30:24;;;;;;;15.80;8.70;;;11.30;99.90;;;;;;6154166;23;20036;-89
2021/12/13 09:33:00;;;;;;;18.65;8.32;;;10.90;99.90;;;;;;6179727;23;20351;-87
2021/12/13 09:35:29;;;;;;;20.13;8.30;;;11.80;99.90;;;;;;6179534;23;20032;-88
2021/12/13 09:38:00;;;;;;;15.77;8.18;;;9.80;99.90;;;;;;6179228;23;20092;-91
2021/12/13 09:40:33;;;;;;;13.65;7.78;;;11.20;99.90;;;;;;6155044;23;20052;-88
2021/12/13 09:42:59;;;;;;;10.82;7.05;;;10.90;99.90;;;;;;6179292;23;20017;-87
2021/12/13 09:45:34;;;;;;;10.45;6.00;;;10.70;99.90;;;;;;6180461;23;20059;-90
2021/12/13 09:48:16;;;;;;;10.18;6.70;;;10.90;99.90;;;;;;6156165;23;20478;-89
2021/12/13 09:50:47;;;;;;;13.73;7.10;;;11.70;99.90;;;;;;6181236;23;20432;-87
2021/12/13 09:53:15;;;;;;;12.27;6.25;;;11.10;99.90;;;;;;6155950;23;20098;-86
2021/12/13 09:55:47;;;;;;;10.50;7.13;;;11.10;99.90;;;;;;6181131;23;20013;-85
2021/12/13 09:58:18;;;;;;;10.15;6.97;;;11.50;99.90;;;;;;6180797;23;20052;-87
2021/12/13 10:01:16;;;;;;;9.38;6.85;;;12.50;99.90;;;;;;6181782;23;20539;-91
2021/12/13 10:03:46;;;;;;;11.65;6.72;;;11.60;99.90;;;;;;6156851;23;20060;-86
2021/12/13 10:06:16;;;;;;;16.30;7.47;;;10.90;99.90;;;;;;6181406;23;20013;-87
2021/12/13 10:08:44;;;;;;;10.55;5.82;;;11.00;99.90;;;;;;6155682;23;20013;-87
2021/12/13 10:11:15;;;;;;;10.55;7.07;;;12.10;99.90;;;;;;6180572;23;20082;-86
2021/12/13 10:13:42;;;;;;;10.18;6.07;;;10.90;99.90;;;;;;6180473;23;20017;-85
2021/12/13 10:16:13;;;;;;;9.27;5.63;;;11.60;99.90;;;;;;6182211;23;20343;-88
2021/12/13 10:18:42;;;;;;;9.05;6.10;;;11.00;99.90;;;;;;6156266;23;20343;-89
2021/12/13 10:21:14;;;;;;;13.73;6.07;;;10.90;99.90;;;;;;6180595;23;20017;-89
2021/12/13 10:23:52;;;;;;;7.63;5.28;;;12.00;99.90;;;;;;6156037;23;20100;-89
2021/12/13 10:26:20;;;;;;;15.95;6.90;;;11.00;99.90;;;;;;6156322;23;20070;-88
2021/12/13 10:28:56;;;;;;;12.18;6.30;;;10.70;99.90;;;;;;6156608;23;20401;-89
2021/12/13 10:31:32;;;;;;;10.20;5.57;;;11.00;99.90;;;;;;6180217;23;20451;-90
2021/12/13 10:34:00;;;;;;;14.05;7.18;;;11.10;99.90;;;;;;6156737;23;20331;-86
2021/12/13 10:36:35;;;;;;;9.95;5.28;;;11.20;99.90;;;;;;6156480;23;20486;-92
2021/12/13 10:39:07;;;;;;;14.23;7.00;;;12.10;99.90;;;;;;6180778;23;20024;-88
2021/12/13 10:41:40;;;;;;;13.57;6.68;;;11.20;99.90;;;;;;6155852;23;20100;-87
2021/12/13 10:44:10;;;;;;;15.48;7.95;;;11.40;99.90;;;;;;6156483;23;20013;-85
2021/12/13 10:46:41;;;;;;;9.85;5.88;;;11.40;99.90;;;;;;6180444;23;20014;-84
2021/12/13 10:49:14;;;;;;;11.32;6.85;;;11.20;99.90;;;;;;6180862;23;20017;-90
2021/12/13 10:51:44;;;;;;;11.15;6.20;;;11.20;99.90;;;;;;6156379;23;20069;-86
2021/12/13 10:54:15;;;;;;;15.05;6.32;;;11.50;99.90;;;;;;6156100;23;20024;-88
2021/12/13 10:56:48;;;;;;;15.80;8.23;;;11.40;99.90;;;;;;6180143;23;20347;-92
2021/12/13 10:59:18;;;;;;;9.45;6.20;;;11.20;99.90;;;;;;6180354;23;20443;-88
2021/12/13 11:01:49;;;;;;;13.73;7.20;;;11.60;99.90;;;;;;6182231;23;20514;-88
2021/12/13 11:04:33;;;;;;;8.93;5.60;;;12.00;99.90;;;;;;6156335;23;20021;-88
2021/12/13 11:07:06;;;;;;;12.35;6.18;;;11.70;99.90;;;;;;6156462;23;20021;-92
2021/12/13 11:09:34;;;;;;;10.00;5.47;;;12.60;99.90;;;;;;6156545;23;20017;-85
2021/12/13 11:12:12;;;;;;;8.75;5.97;;;12.60;99.90;;;;;;6180437;23;20085;-88
2021/12/13 11:14:41;;;;;;;9.50;5.53;;;9.90;99.90;;;;;;6155652;23;20462;-87
2021/12/13 11:17:15;;;;;;;9.50;5.63;;;11.80;99.90;;;;;;6180442;23;20032;-94
2021/12/13 11:19:46;;;;;;;7.13;5.43;;;12.00;99.90;;;;;;6155983;23;20013;-85
2021/12/13 11:22:16;;;;;;;10.32;5.53;;;11.70;99.90;;;;;;6180176;23;20024;-85
2021/12/13 11:24:46;;;;;;;16.17;6.38;;;12.00;99.90;;;;;;6181902;23;20040;-84
2021/12/13 11:27:21;;;;;;;9.75;4.93;;;11.40;99.90;;;;;;6180379;23;20032;-88
2021/12/13 11:29:48;;;;;;;15.05;5.53;;;11.70;99.90;;;;;;6180204;23;20049;-88
2021/12/13 11:32:34;;;;;;;9.10;4.82;;;11.50;99.90;;;;;;6155644;23;20017;-90
2021/12/13 11:39:43;;;;;;;8.93;3.97;;;13.00;99.90;;;;;;6232955;22;20096;-95
2021/12/13 11:42:36;;;;;;;12.90;4.95;;;11.70;99.90;;;;;;6157328;23;20024;-91
2021/12/13 11:45:15;;;;;;;8.77;4.47;;;11.90;99.90;;;;;;6179489;22;20035;-91
2021/12/13 11:48:01;;;;;;;12.00;6.28;;;11.90;99.90;;;;;;6154587;23;20032;-92
2021/12/13 11:50:29;;;;;;;14.68;5.90;;;12.00;99.90;;;;;;6154540;23;20025;-91
2021/12/13 11:53:23;;;;;;;10.68;5.63;;;11.40;99.90;;;;;;6154725;23;20025;-90
2021/12/13 11:55:59;;;;;;;12.60;5.50;;;11.60;99.90;;;;;;6154311;23;20463;-90
2021/12/13 11:58:50;;;;;;;9.00;5.50;;;11.90;99.90;;;;;;6154445;23;20063;-91
2021/12/13 12:01:48;;;;;;;9.38;5.28;;;11.60;99.90;;;;;;6178766;23;20039;-91
2021/12/13 12:04:36;;;;;;;11.38;5.32;;;11.70;99.90;;;;;;6154576;23;20044;-89
2021/12/13 12:07:24;;;;;;;14.30;6.30;;;11.40;99.90;;;;;;6154745;23;20044;-91
2021/12/13 12:10:04;;;;;;;13.15;5.95;;;11.70;99.90;;;;;;6154896;23;20016;-87
2021/12/13 12:12:58;;;;;;;11.90;5.72;;;11.50;99.90;;;;;;6180508;23;20383;-90
2021/12/13 12:15:29;;;;;;;15.95;6.45;;;11.50;99.90;;;;;;6156105;23;20100;-89
2021/12/13 12:17:59;;;;;;;9.18;5.20;;;11.70;99.90;;;;;;6155194;22;20013;-90
2021/12/13 12:21:15;;;;;;;12.73;5.30;;;11.70;99.90;;;;;;6156156;23;20055;-93
2021/12/13 12:23:43;;;;;;;12.20;5.30;;;11.80;99.90;;;;;;6186746;22;20012;-92
2021/12/13 12:26:09;;;;;;;10.70;5.32;;;11.50;99.90;;;;;;6155405;23;20009;-93
2021/12/13 12:28:36;;;;;;;17.35;5.47;;;11.90;99.90;;;;;;6155860;23;20443;-91
2021/12/13 12:31:12;;;;;;;8.50;4.05;;;11.60;99.90;;;;;;6155255;23;20009;-91
2021/12/13 12:33:40;;;;;;;22.92;4.70;;;11.30;99.90;;;;;;6155780;23;20040;-88
2021/12/13 12:36:19;;;;;;;13.07;4.35;;;11.10;99.90;;;;;;6155340;23;20066;-89
2021/12/13 12:39:04;;;;;;;4.60;2.95;;;11.30;99.90;;;;;;6180060;23;20024;-86
2021/12/13 12:41:51;;;;;;;9.07;3.58;;;11.10;99.90;;;;;;6180844;23;20021;-92
2021/12/13 12:44:21;;;;;;;11.15;4.07;;;11.10;99.90;;;;;;6179555;23;20017;-89
2021/12/13 12:46:50;;;;;;;15.45;3.67;;;11.50;99.90;;;;;;6180552;23;20021;-93
2021/12/13 12:49:22;;;;;;;25.80;6.00;;;11.20;99.90;;;;;;6156480;23;20025;-92
2021/12/13 12:51:49;;;;;;;19.13;4.50;;;11.90;99.90;;;;;;6179988;23;20024;-86
2021/12/13 12:54:19;;;;;;;15.73;4.03;;;13.00;99.90;;;;;;6179734;23;20017;-90
2021/12/13 12:56:49;;;;;;;10.68;3.33;;;11.00;99.90;;;;;;6153867;23;20017;-91
2021/12/13 12:59:29;;;;;;;12.20;3.47;;;11.30;99.90;;;;;;6153037;23;20096;-90
2021/12/13 13:01:59;;;;;;;20.42;4.70;;;10.60;99.90;;;;;;6154111;23;20354;-85
2021/12/13 13:04:29;;;;;;;12.77;4.00;;;10.90;99.90;;;;;;6180287;23;20017;-88
2021/12/13 13:07:01;;;;;;;13.25;3.92;;;10.60;99.90;;;;;;6154811;23;20021;-86
2021/12/13 13:09:49;;;;;;;18.73;4.95;;;11.00;99.90;;;;;;6179458;23;20351;-94
2021/12/13 13:12:33;;;;;;;19.08;4.75;;;11.00;99.90;;;;;;6155442;23;20342;-87
2021/12/13 13:15:09;;;;;;;15.10;4.63;;;11.00;99.90;;;;;;6179039;23;20025;-92
2021/12/13 13:18:07;;;;;;;15.75;3.85;;;11.30;99.90;;;;;;6155266;23;20432;-93
2021/12/13 13:20:54;;;;;;;16.95;5.43;;;11.00;99.90;;;;;;6156734;23;20028;-91
2021/12/13 13:23:23;;;;;;;20.77;5.03;;;11.30;99.90;;;;;;6156207;23;20471;-89
2021/12/13 13:25:55;;;;;;;17.33;5.28;;;11.50;99.90;;;;;;6156992;23;20069;-88
2021/12/13 13:28:28;;;;;;;8.88;3.60;;;11.60;99.90;;;;;;6155949;23;20025;-88
2021/12/13 13:31:23;;;;;;;18.90;4.80;;;11.50;99.90;;;;;;6158292;23;20438;-92
2021/12/13 13:33:56;;;;;;;20.33;5.38;;;11.40;99.90;;;;;;6157203;23;20088;-89
2021/12/13 13:36:46;;;;;;;20.08;5.20;;;11.00;99.90;;;;;;6182993;23;20113;-88
2021/12/13 13:39:31;;;;;;;11.10;3.95;;;11.20;99.90;;;;;;6182713;23;20096;-94
2021/12/13 13:42:07;;;;;;;15.70;4.47;;;11.60;99.90;;;;;;6157067;23;20748;-91
2021/12/13 13:44:53;;;;;;;21.48;5.65;;;12.00;99.90;;;;;;6157145;23;20347;-96
2021/12/13 13:47:29;;;;;;;10.88;4.00;;;13.00;99.90;;;;;;6157604;23;20058;-94
2021/12/13 13:50:15;;;;;;;13.52;4.68;;;11.40;99.90;;;;;;6180825;23;20017;-89
2021/12/13 13:52:45;;;;;;;14.85;3.97;;;11.40;99.90;;;;;;6180562;23;20020;-89
2021/12/13 13:55:27;;;;;;;13.43;4.38;;;11.50;99.90;;;;;;6157038;23;20013;-91
2021/12/13 13:57:59;;;;;;;13.05;4.45;;;11.60;99.90;;;;;;6156875;23;20488;-91
2021/12/13 14:00:36;;;;;;;14.40;4.45;;;11.60;99.90;;;;;;6157117;23;20099;-95
2021/12/13 14:03:02;;;;;;;12.02;4.22;;;11.20;99.90;;;;;;6156395;23;20024;-92
2021/12/13 14:05:34;;;;;;;18.52;4.57;;;10.90;99.90;;;;;;6158168;23;20431;-91
2021/12/13 14:08:01;;;;;;;19.83;4.95;;;10.90;99.90;;;;;;6156185;23;20025;-87
2021/12/13 14:10:27;;;;;;;14.73;4.35;;;11.60;99.90;;;;;;6155779;23;20091;-92
2021/12/13 14:13:04;;;;;;;14.15;5.43;;;11.70;99.90;;;;;;6157302;23;20151;-86
2021/12/13 14:15:33;;;;;;;13.35;4.60;;;11.70;99.90;;;;;;6152725;23;20028;-89
2021/12/13 14:18:09;;;;;;;14.35;4.53;;;11.40;99.90;;;;;;6180953;22;20021;-96
2021/12/13 14:21:24;;;;;;;10.05;4.32;;;11.60;99.90;;;;;;6181754;23;20059;-93
2021/12/13 14:23:42;;;;;;;13.82;4.32;;;11.80;99.90;;;;;;6174958;23;20028;-89
2021/12/13 14:26:12;;;;;;;14.98;3.60;;;11.50;99.90;;;;;;6155917;23;20021;-92
2021/12/13 14:28:45;;;;;;;13.77;3.95;;;11.60;99.90;;;;;;6156235;23;20013;-91
2021/12/13 14:31:18;;;;;;;19.65;5.25;;;11.50;99.90;;;;;;6155526;23;20040;-90
2021/12/13 14:33:48;;;;;;;18.23;4.93;;;11.40;99.90;;;;;;6156270;23;20013;-89
2021/12/13 14:36:20;;;;;;;10.18;3.88;;;11.10;99.90;;;;;;6181204;23;20021;-89
2021/12/13 14:38:57;;;;;;;7.28;3.22;;;11.90;99.90;;;;;;6156370;23;20097;-92
2021/12/13 14:41:32;;;;;;;11.63;3.83;;;11.30;99.90;;;;;;6155760;23;20017;-88
2021/12/13 14:44:05;;;;;;;11.13;3.88;;;11.00;99.90;;;;;;6155916;23;20018;-94
2021/12/13 14:46:38;;;;;;;9.52;3.67;;;11.60;99.90;;;;;;6181628;23;20017;-90
2021/12/13 14:49:38;;;;;;;11.55;4.53;;;11.50;99.90;;;;;;6156631;23;20013;-93
2021/12/13 14:52:09;;;;;;;8.65;3.58;;;12.00;99.90;;;;;;6156451;23;20013;-88
2021/12/13 15:02:41;;;;;;;;;;;;;;;;;;;;;
2021/12/13 15:05:13;;;;;;;12.88;5.15;;;11.90;99.90;;;;;;6203557;23;20029;-90
2021/12/13 15:07:44;;;;;;;10.23;4.60;;;10.90;99.90;;;;;;6154985;23;20056;-87
2021/12/13 15:10:19;;;;;;;13.02;4.95;;;11.00;99.90;;;;;;6180419;23;20417;-88
2021/12/13 15:12:48;;;;;;;12.40;4.90;;;10.90;99.90;;;;;;6181100;23;20073;-88
2021/12/13 15:15:23;;;;;;;11.30;4.28;;;10.70;99.90;;;;;;6180542;23;20013;-82
2021/12/13 15:17:54;;;;;;;14.57;4.97;;;11.50;99.90;;;;;;6155471;23;20443;-83
2021/12/13 15:20:24;;;;;;;11.85;4.82;;;11.00;99.90;;;;;;6182032;23;20025;-83
2021/12/13 15:22:53;;;;;;;8.73;4.20;;;11.70;99.90;;;;;;6180031;23;20025;-80
2021/12/13 15:25:24;;;;;;;13.18;5.65;;;11.10;99.90;;;;;;6180257;23;20013;-81
2021/12/13 15:27:50;;;;;;;15.55;5.53;;;11.10;99.90;;;;;;6179639;23;20021;-79
2021/12/13 15:30:20;;;;;;;11.18;4.75;;;11.30;99.90;;;;;;6181914;23;20018;-83
2021/12/13 15:32:49;;;;;;;10.73;5.88;;;11.60;99.90;;;;;;6179912;23;20142;-80
2021/12/13 15:35:16;;;;;;;10.27;5.75;;;11.30;99.90;;;;;;6180306;23;20347;-84
2021/12/13 15:37:46;;;;;;;21.35;6.25;;;10.80;99.90;;;;;;6155526;23;20013;-83
2021/12/13 15:40:22;;;;;;;7.57;5.10;;;11.20;99.90;;;;;;6180302;23;20339;-83
2021/12/13 15:42:55;;;;;;;12.68;5.50;;;11.30;99.90;;;;;;6155170;23;20013;-81
2021/12/13 15:45:30;;;;;;;10.38;5.93;;;10.90;99.90;;;;;;6180220;23;20017;-82
2021/12/13 15:50:48;;;;;;;13.25;6.30;;;11.20;99.90;;;;;;6205068;23;20070;-84
2021/12/13 15:53:15;;;;;;;15.55;6.18;;;11.40;99.90;;;;;;6180210;23;20021;-83
2021/12/13 15:55:47;;;;;;;13.70;5.82;;;11.90;99.90;;;;;;6180341;23;20073;-83
2021/12/13 15:58:18;;;;;;;23.60;8.38;;;11.40;99.90;;;;;;6155939;23;20017;-82
2021/12/13 16:00:50;;;;;;;11.35;7.68;;;10.90;99.90;;;;;;6156340;23;20017;-83
2021/12/13 16:03:25;;;;;;;16.38;10.02;;;10.90;99.90;;;;;;6179955;22;20447;-85
2021/12/13 16:05:58;;;;;;;9.88;6.47;;;10.90;99.90;;;;;;6179888;23;20447;-83
2021/12/13 16:08:47;;;;;;;10.02;6.63;;;11.50;99.90;;;;;;6180316;23;20017;-82
2021/12/13 16:11:27;;;;;;;11.05;6.85;;;11.30;99.90;;;;;;6180356;23;20021;-83
2021/12/13 16:13:56;;;;;;;14.15;8.77;;;10.90;99.90;;;;;;6180201;23;20071;-83
2021/12/13 16:16:26;;;;;;;13.63;7.88;;;10.70;99.90;;;;;;6144525;23;20114;-83
2021/12/13 16:18:54;;;;;;;16.52;9.88;;;11.10;99.90;;;;;;6155260;23;20092;-82
2021/12/13 16:21:28;;;;;;;18.10;9.75;;;10.60;99.90;;;;;;6180706;23;20328;-86
2021/12/13 16:24:00;;;;;;;14.93;8.27;;;10.80;99.90;;;;;;6179728;23;20020;-83
2021/12/13 16:26:38;;;;;;;11.25;7.18;;;10.80;99.90;;;;;;6155139;23;20406;-86
2021/12/13 16:29:10;;;;;;;13.18;7.50;;;11.30;99.90;;;;;;6180260;23;20021;-84
2021/12/13 16:31:37;;;;;;;15.60;9.48;;;10.90;99.90;;;;;;6153483;23;20032;-86
2021/12/13 16:34:09;;;;;;;14.90;7.70;;;10.80;99.90;;;;;;6178421;23;20320;-84
2021/12/13 16:36:44;;;;;;;12.77;7.97;;;11.70;99.90;;;;;;6178205;23;20100;-85
2021/12/13 16:39:18;;;;;;;16.95;9.95;;;10.70;99.90;;;;;;6178120;23;20088;-83
2021/12/13 16:41:47;;;;;;;14.95;9.35;;;11.30;99.90;;;;;;6177238;23;20025;-83
2021/12/13 16:44:17;;;;;;;19.00;10.38;;;12.20;99.90;;;;;;6177761;23;20451;-84
2021/12/13 16:46:46;;;;;;;16.80;7.97;;;11.30;99.90;;;;;;6153363;23;20031;-84
2021/12/13 16:49:19;;;;;;;17.27;8.57;;;10.50;99.90;;;;;;6177900;23;20354;-83
2021/12/13 16:51:49;;;;;;;16.75;9.40;;;10.50;99.90;;;;;;6177823;23;20104;-83
2021/12/13 16:54:20;;;;;;;22.05;11.05;;;10.80;99.90;;;;;;6177350;23;20393;-84
2021/12/13 16:56:47;;;;;;;15.75;8.45;;;11.20;99.90;;;;;;6178254;22;20052;-83
2021/12/13 16:59:13;;;;;;;12.75;8.48;;;12.10;99.90;;;;;;6177767;23;20032;-84
2021/12/13 17:01:44;;;;;;;15.27;8.73;;;10.90;99.90;;;;;;6177954;23;20028;-83
2021/12/13 17:04:17;;;;;;;13.00;9.00;;;11.40;99.90;;;;;;6177789;23;20355;-84
2021/12/13 17:06:49;;;;;;;10.52;7.70;;;11.90;99.90;;;;;;6177896;23;20020;-83
2021/12/13 17:09:15;;;;;;;13.73;9.82;;;11.40;99.90;;;;;;6153146;23;20023;-83
2021/12/13 17:11:43;;;;;;;15.55;9.98;;;11.00;99.90;;;;;;6177694;23;20017;-83
2021/12/13 17:14:17;;;;;;;21.13;9.43;;;12.00;99.90;;;;;;6152941;23;20025;-83
2021/12/13 17:16:58;;;;;;;20.25;12.50;;;11.80;99.90;;;;;;6177525;23;20017;-83
2021/12/13 17:19:28;;;;;;;15.60;10.75;;;11.40;99.90;;;;;;6155070;23;20017;-83
2021/12/13 17:21:59;;;;;;;16.42;9.77;;;11.20;99.90;;;;;;6179642;23;20017;-83
2021/12/13 17:24:29;;;;;;;17.40;10.10;;;10.60;99.90;;;;;;6179477;23;20017;-83
2021/12/13 17:27:09;;;;;;;12.75;8.48;;;10.80;99.90;;;;;;6177891;23;20062;-84
2021/12/13 17:29:55;;;;;;;13.38;7.72;;;10.70;99.90;;;;;;6152373;23;20351;-83
2021/12/13 17:32:32;;;;;;;16.67;9.57;;;11.50;99.90;;;;;;6177404;23;20025;-83
2021/12/13 17:35:03;;;;;;;14.15;9.35;;;10.90;99.90;;;;;;6176564;23;20017;-84
2021/12/13 17:37:29;;;;;;;14.80;9.35;;;12.30;99.90;;;;;;6151981;23;20042;-84
2021/12/13 17:40:03;;;;;;;16.10;9.82;;;10.80;99.90;;;;;;6152905;23;20021;-83
2021/12/13 17:42:59;;;;;;;14.32;10.48;;;11.00;99.90;;;;;;6176271;23;20025;-83
2021/12/13 17:45:25;;;;;;;20.42;10.43;;;10.90;99.90;;;;;;6151803;23;20412;-83
2021/12/13 17:48:09;;;;;;;21.05;12.82;;;10.70;99.90;;;;;;6176805;23;20017;-84
2021/12/13 17:50:40;;;;;;;21.35;10.70;;;9.20;99.90;;;;;;6152581;23;20024;-84
2021/12/13 17:53:10;;;;;;;12.88;8.75;;;10.70;99.90;;;;;;6176180;23;20056;-84
2021/12/13 17:55:42;;;;;;;17.02;11.90;;;11.00;99.90;;;;;;6178039;23;20021;-87
2021/12/13 17:58:17;;;;;;;18.25;11.70;;;10.60;99.90;;;;;;6177254;23;20028;-83
2021/12/13 18:00:50;;;;;;;25.15;15.00;;;11.40;99.90;;;;;;6177337;23;20017;-83
2021/12/13 18:03:33;;;;;;;19.30;11.88;;;11.00;99.90;;;;;;6148902;23;20021;-83
2021/12/13 18:06:12;;;;;;;18.38;10.18;;;11.10;99.90;;;;;;6176594;23;20017;-83
2021/12/13 18:08:38;;;;;;;19.40;12.10;;;11.60;99.90;;;;;;6178992;23;20104;-83
2021/12/13 18:11:04;;;;;;;16.75;10.23;;;11.80;99.90;;;;;;6180771;23;20044;-83
2021/12/13 18:13:41;;;;;;;20.95;12.30;;;11.20;99.90;;;;;;6179987;23;20441;-83
2021/12/13 18:16:07;;;;;;;17.52;11.45;;;10.80;99.90;;;;;;6179474;23;20043;-83